Flight Track Log - Related Links

Times and Time Zones

All times are in EDT time to prevent confusion due to time zone crossing. See the TAM3543 flight status page for this flight to view local times or setup timezone preferences in your user account.

Time Position Orientation Groundspeed Altitude Reporting Facility
EDT Latitude Longitude Course Direction KTS MPH feet Rate Location/Type
Wed 02:46:16 AM -3.0390 -60.0320 90° East 165 190 900  Level FlightAware ADS-B
Wed 02:46:38 AM -3.0390 -60.0160 90° East 157 181 1,700 1,756 Climbing FlightAware ADS-B
Wed 02:46:57 AM -3.0390 -60.0030 90° East 161 185 2,100 1,313 Climbing FlightAware ADS-B
Wed 02:47:10 AM -3.0400 -59.9930 96° East 164 189 2,400 1,364 Climbing FlightAware ADS-B
Wed 02:47:19 AM -3.0440 -59.9870 124° Southeast 166 191 2,600 1,500 Climbing FlightAware ADS-B
Wed 02:47:26 AM -3.0490 -59.9830 141° Southeast 169 194 2,800 889 Climbing FlightAware ADS-B
Wed 02:47:46 AM -3.0620 -59.9730 142° Southeast 189 217 3,000 750 Climbing FlightAware ADS-B
Wed 02:48:06 AM -3.0760 -59.9610 139° Southeast 210 242 3,300 833 Climbing FlightAware ADS-B
Wed 02:48:22 AM -3.0890 -59.9510 142° Southeast 228 262 3,500 1,000 Climbing FlightAware ADS-B
Wed 02:48:42 AM -3.1060 -59.9370 141° Southeast 253 291 3,900 1,500 Climbing FlightAware ADS-B
Wed 02:48:58 AM -3.1220 -59.9240 141° Southeast 263 303 4,400 2,167 Climbing FlightAware ADS-B
Wed 02:49:18 AM -3.1410 -59.9090 142° Southeast 268 308 5,200 2,550 Climbing FlightAware ADS-B
Wed 02:49:38 AM -3.1620 -59.8930 143° Southeast 271 312 6,100 2,500 Climbing FlightAware ADS-B
Wed 02:49:54 AM -3.1760 -59.8810 139° Southeast 273 314 6,700 2,500 Climbing FlightAware ADS-B
Wed 02:50:14 AM -3.1980 -59.8640 142° Southeast 273 314 7,600 2,250 Climbing FlightAware ADS-B
Wed 02:50:34 AM -3.2170 -59.8490 142° Southeast 280 322 8,200 2,000 Climbing FlightAware ADS-B
Wed 02:50:50 AM -3.2330 -59.8360 141° Southeast 283 326 8,800 2,333 Climbing FlightAware ADS-B
Wed 02:51:10 AM -3.2540 -59.8190 141° Southeast 285 328 9,600 1,962 Climbing FlightAware ADS-B
Wed 02:51:42 AM -3.2880 -59.7920 142° Southeast 300 345 10,500 1,235 Climbing FlightAware ADS-B
Wed 02:52:18 AM -3.3280 -59.7600 141° Southeast 333 383 11,000 1,297 Climbing FlightAware ADS-B
Wed 02:52:56 AM -3.3780 -59.7200 141° Southeast 350 403 12,100 1,875 Climbing FlightAware ADS-B
Wed 02:53:22 AM -3.4090 -59.6920 138° Southeast 353 406 13,000 1,875 Climbing FlightAware ADS-B
Wed 02:54:00 AM -3.4440 -59.6420 125° Southeast 359 413 14,100 1,652 Climbing FlightAware ADS-B
Wed 02:54:31 AM -3.4750 -59.5990 126° Southeast 369 425 14,900 1,701 Climbing FlightAware ADS-B
Wed 02:55:07 AM -3.5090 -59.5500 125° Southeast 373 429 16,000 892 Climbing FlightAware ADS-B
Wed 02:55:45 AM -3.5410 -59.5040 125° Southeast 373 429 16,000 1,014 Level FlightAware ADS-B
Wed 02:56:18 AM -3.5790 -59.4520 126° Southeast 380 437 17,200 1,043 Climbing FlightAware ADS-B
Wed 02:56:54 AM -3.6100 -59.4080 125° Southeast 380 437 17,200  Level FlightAware ADS-B
Wed 02:57:30 AM -3.6410 -59.3630 125° Southeast 380 437 17,200  Level FlightAware ADS-B
Wed 02:58:06 AM -3.6720 -59.3190 125° Southeast 380 437 17,200  Level FlightAware ADS-B
Wed 02:58:42 AM -3.7020 -59.2750 124° Southeast 380 437 17,200  Level FlightAware ADS-B
Wed 02:59:18 AM -3.7330 -59.2310 125° Southeast 380 437 17,200 128 Level FlightAware ADS-B
Wed 03:01:00 AM -3.8718 -59.1067 138° Southeast  Level Estimated
Wed 03:02:00 AM -3.9535 -59.0336 138° Southeast  Level Estimated
Wed 03:03:00 AM -4.0352 -58.9604 138° Southeast  Level Estimated
Wed 03:04:00 AM -4.1168 -58.8872 138° Southeast  Level Estimated
Wed 03:05:00 AM -4.1985 -58.8140 138° Southeast  Level Estimated
Wed 03:06:00 AM -4.2801 -58.7408 138° Southeast  Level Estimated
Wed 03:07:00 AM -4.3617 -58.6676 138° Southeast  Level Estimated
Wed 03:08:00 AM -4.4433 -58.5944 138° Southeast  Level Estimated
Wed 03:09:00 AM -4.5250 -58.5211 138° Southeast  Level Estimated
Wed 03:10:00 AM -4.6066 -58.4478 138° Southeast  Level Estimated
Wed 03:11:00 AM -4.6882 -58.3746 138° Southeast  Level Estimated
Wed 03:12:00 AM -4.7698 -58.3013 138° Southeast  Level Estimated
Wed 03:13:00 AM -4.8513 -58.2279 138° Southeast  Level Estimated
Wed 03:14:00 AM -4.9329 -58.1546 138° Southeast  Level Estimated
Wed 03:15:00 AM -5.0145 -58.0812 138° Southeast  Level Estimated
Wed 03:16:00 AM -5.0960 -58.0079 138° Southeast  Level Estimated
Wed 03:17:00 AM -5.1776 -57.9345 138° Southeast  Level Estimated
Wed 03:18:00 AM -5.2591 -57.8611 138° Southeast  Level Estimated
Wed 03:19:00 AM -5.3407 -57.7876 138° Southeast  Level Estimated
Wed 03:20:00 AM -5.4222 -57.7142 138° Southeast  Level Estimated
Wed 03:21:00 AM -5.5037 -57.6407 138° Southeast  Level Estimated
Wed 03:22:00 AM -5.5852 -57.5672 138° Southeast  Level Estimated
Wed 03:23:00 AM -5.6667 -57.4937 138° Southeast  Level Estimated
Wed 03:24:00 AM -5.7482 -57.4202 138° Southeast  Level Estimated
Wed 03:25:00 AM -5.8297 -57.3466 138° Southeast  Level Estimated
Wed 03:26:00 AM -5.9112 -57.2731 138° Southeast  Level Estimated
Wed 03:27:00 AM -5.9926 -57.1995 138° Southeast  Level Estimated
Wed 03:28:00 AM -6.0741 -57.1259 138° Southeast  Level Estimated
Wed 03:29:00 AM -6.1555 -57.0522 138° Southeast  Level Estimated
Wed 03:30:00 AM -6.2369 -56.9785 138° Southeast  Level Estimated
Wed 03:31:00 AM -6.3184 -56.9049 138° Southeast  Level Estimated
Wed 03:32:00 AM -6.3998 -56.8312 138° Southeast  Level Estimated
Wed 03:33:00 AM -6.4812 -56.7574 138° Southeast  Level Estimated
Wed 03:34:00 AM -6.5626 -56.6837 138° Southeast  Level Estimated
Wed 03:35:00 AM -6.6439 -56.6099 138° Southeast  Level Estimated
Wed 03:36:00 AM -6.7253 -56.5361 138° Southeast  Level Estimated
Wed 03:37:00 AM -6.8067 -56.4622 138° Southeast  Level Estimated
Wed 03:38:00 AM -6.8880 -56.3884 138° Southeast  Level Estimated
Wed 03:39:00 AM -6.9693 -56.3145 138° Southeast  Level Estimated
Wed 03:40:00 AM -7.0507 -56.2406 138° Southeast  Level Estimated
Wed 03:41:00 AM -7.1320 -56.1667 138° Southeast  Level Estimated
Wed 03:42:00 AM -7.2133 -56.0927 138° Southeast  Level Estimated
Wed 03:43:00 AM -7.2946 -56.0187 138° Southeast  Level Estimated
Wed 03:44:00 AM -7.3759 -55.9447 138° Southeast  Level Estimated
Wed 03:45:00 AM -7.4571 -55.8707 138° Southeast  Level Estimated
Wed 03:46:00 AM -7.5384 -55.7966 138° Southeast  Level Estimated
Wed 03:47:00 AM -7.6196 -55.7225 138° Southeast  Level Estimated
Wed 03:48:00 AM -7.7008 -55.6484 138° Southeast  Level Estimated
Wed 03:49:00 AM -7.7820 -55.5743 138° Southeast  Level Estimated
Wed 03:50:00 AM -7.8632 -55.5001 138° Southeast  Level Estimated
Wed 03:51:00 AM -7.9444 -55.4259 138° Southeast  Level Estimated
Wed 03:52:00 AM -8.0256 -55.3516 138° Southeast  Level Estimated
Wed 03:53:00 AM -8.1068 -55.2774 138° Southeast  Level Estimated
Wed 03:54:00 AM -8.1879 -55.2031 138° Southeast  Level Estimated
Wed 03:55:00 AM -8.2690 -55.1287 138° Southeast  Level Estimated
Wed 03:56:00 AM -8.3502 -55.0544 138° Southeast  Level Estimated
Wed 03:57:00 AM -8.4313 -54.9800 138° Southeast  Level Estimated
Wed 03:58:00 AM -8.5124 -54.9056 138° Southeast  Level Estimated
Wed 03:59:00 AM -8.5934 -54.8311 138° Southeast  Level Estimated
Wed 04:00:00 AM -8.6745 -54.7566 138° Southeast  Level Estimated
Wed 04:01:00 AM -8.7556 -54.6821 138° Southeast  Level Estimated
Wed 04:02:00 AM -8.8366 -54.6076 138° Southeast  Level Estimated
Wed 04:03:00 AM -8.9176 -54.5330 138° Southeast  Level Estimated
Wed 04:04:00 AM -8.9986 -54.4584 138° Southeast  Level Estimated
Wed 04:05:00 AM -9.0796 -54.3837 138° Southeast  Level Estimated
Wed 04:06:00 AM -9.1606 -54.3090 138° Southeast  Level Estimated
Wed 04:07:00 AM -9.2415 -54.2343 138° Southeast  Level Estimated
Wed 04:08:00 AM -9.3225 -54.1596 138° Southeast  Level Estimated
Wed 04:09:00 AM -9.4034 -54.0848 138° Southeast  Level Estimated
Wed 04:10:00 AM -9.4843 -54.0100 138° Southeast  Level Estimated
Wed 04:11:00 AM -9.5652 -53.9351 138° Southeast  Level Estimated
Wed 04:12:00 AM -9.6461 -53.8602 138° Southeast  Level Estimated
Wed 04:13:00 AM -9.7269 -53.7853 138° Southeast  Level Estimated
Wed 04:14:00 AM -9.8078 -53.7104 138° Southeast  Level Estimated
Wed 04:15:00 AM -9.8886 -53.6353 138° Southeast  Level Estimated
Wed 04:16:00 AM -9.9694 -53.5603 138° Southeast  Level Estimated
Wed 04:17:00 AM -10.0502 -53.4852 138° Southeast  Level Estimated
Wed 04:18:00 AM -10.1310 -53.4101 138° Southeast  Level Estimated
Wed 04:19:00 AM -10.2118 -53.3350 138° Southeast  Level Estimated
Wed 04:20:00 AM -10.2925 -53.2598 138° Southeast  Level Estimated
Wed 04:21:00 AM -10.3733 -53.1846 137° Southeast  Level Estimated
Wed 04:22:00 AM -10.4540 -53.1093 137° Southeast  Level Estimated
Wed 04:23:00 AM -10.5347 -53.0340 137° Southeast  Level Estimated
Wed 04:24:00 AM -10.6153 -52.9587 137° Southeast  Level Estimated
Wed 04:25:00 AM -10.6960 -52.8833 137° Southeast  Level Estimated
Wed 04:26:00 AM -10.7766 -52.8079 137° Southeast  Level Estimated
Wed 04:27:00 AM -10.8573 -52.7324 137° Southeast  Level Estimated
Wed 04:28:00 AM -10.9379 -52.6569 137° Southeast  Level Estimated
Wed 04:29:00 AM -11.0184 -52.5814 137° Southeast  Level Estimated
Wed 04:30:00 AM -11.0990 -52.5058 137° Southeast  Level Estimated
Wed 04:31:00 AM -11.1796 -52.4301 137° Southeast  Level Estimated
Wed 04:32:00 AM -11.2601 -52.3545 137° Southeast  Level Estimated
Wed 04:33:00 AM -11.3406 -52.2788 137° Southeast  Level Estimated
Wed 04:34:00 AM -11.4211 -52.2030 137° Southeast  Level Estimated
Wed 04:35:00 AM -11.5016 -52.1272 137° Southeast  Level Estimated
Wed 04:36:00 AM -11.5820 -52.0514 137° Southeast  Level Estimated
Wed 04:37:00 AM -11.6624 -51.9755 137° Southeast  Level Estimated
Wed 04:38:00 AM -11.7429 -51.8996 137° Southeast  Level Estimated
Wed 04:39:00 AM -11.8232 -51.8236 137° Southeast  Level Estimated
Wed 04:40:00 AM -11.9036 -51.7476 137° Southeast  Level Estimated
Wed 04:41:00 AM -11.9840 -51.6715 137° Southeast  Level Estimated
Wed 04:42:00 AM -12.0643 -51.5954 137° Southeast  Level Estimated
Wed 04:43:00 AM -12.1446 -51.5193 137° Southeast  Level Estimated
Wed 04:44:00 AM -12.2249 -51.4431 137° Southeast  Level Estimated
Wed 04:45:00 AM -12.3052 -51.3668 137° Southeast  Level Estimated
Wed 04:46:00 AM -12.3854 -51.2905 137° Southeast  Level Estimated
Wed 04:47:00 AM -12.4656 -51.2142 137° Southeast  Level Estimated
Wed 04:48:00 AM -12.5458 -51.1378 137° Southeast  Level Estimated
Wed 04:49:00 AM -12.6260 -51.0614 137° Southeast  Level Estimated
Wed 04:50:00 AM -12.7062 -50.9849 137° Southeast  Level Estimated
Wed 04:51:00 AM -12.7863 -50.9084 137° Southeast  Level Estimated
Wed 04:52:00 AM -12.8665 -50.8318 137° Southeast  Level Estimated
Wed 04:52:53 AM -14.4860 -49.5790 137° Southeast 450 518 31,800  Level FlightAware ADS-B
Wed 04:53:00 AM -12.9465 -50.7551 137° Southeast  Level Estimated
Wed 04:53:28 AM -14.5400 -49.5280 138° Southeast 441 507 30,600  Level FlightAware ADS-B
Wed 04:54:09 AM -14.5980 -49.4740 138° Southeast 433 498 29,100 -2,080 Descending FlightAware ADS-B
Wed 04:54:43 AM -14.6500 -49.4240 137° Southeast 428 493 28,000 -1,969 Descending FlightAware ADS-B
Wed 04:55:13 AM -14.6950 -49.3820 138° Southeast 423 487 27,000 -1,971 Descending FlightAware ADS-B
Wed 04:55:53 AM -14.7540 -49.3260 137° Southeast 416 479 25,700 -2,053 Descending FlightAware ADS-B
Wed 04:56:29 AM -14.8000 -49.2830 138° Southeast 412 474 24,400 -1,750 Descending FlightAware ADS-B
Wed 04:57:05 AM -14.8470 -49.2380 137° Southeast 416 479 23,600 -1,636 Descending FlightAware ADS-B
Wed 04:57:57 AM -14.9300 -49.1600 138° Southeast 472 543 22,000 -1,091 Descending FlightAware ADS-B
Wed 04:58:33 AM -14.9780 -49.1130 137° Southeast 472 543 22,000  Level FlightAware ADS-B
Wed 04:59:09 AM -15.0270 -49.0650 137° Southeast 472 543 22,000  Level FlightAware ADS-B
Wed 04:59:45 AM -15.0760 -49.0180 137° Southeast 472 543 22,000  Level FlightAware ADS-B
Wed 05:00:22 AM -15.1260 -48.9700 137° Southeast 472 543 22,000  Level FlightAware ADS-B
Wed 05:00:58 AM -15.1750 -48.9220 137° Southeast 472 543 22,000 -2,310 Level FlightAware ADS-B
Wed 05:03:00 AM -15.3039 -48.7338 125° Southeast  Level Estimated
Wed 05:03:29 AM -15.4240 -48.6240 125° Southeast 423 487 14,800  Level FlightAware ADS-B
Wed 05:04:04 AM -15.4720 -48.5720 134° Southeast 422 486 13,200 -2,743 Descending FlightAware ADS-B
Wed 05:04:39 AM -15.5200 -48.5190 133° Southeast 414 476 11,600 -1,800 Descending FlightAware ADS-B
Wed 05:05:14 AM -15.5640 -48.4710 134° Southeast 385 443 11,100 -686 Descending FlightAware ADS-B
Wed 05:05:49 AM -15.6040 -48.4270 133° Southeast 349 402 10,800 -592 Descending FlightAware ADS-B
Wed 05:06:25 AM -15.6410 -48.3870 134° Southeast 322 371 10,400 -982 Descending FlightAware ADS-B
Wed 05:06:44 AM -15.6630 -48.3630 134° Southeast 317 365 9,900 -1,385 Descending FlightAware ADS-B
Wed 05:07:04 AM -15.6810 -48.3430 133° Southeast 311 358 9,500 -1,371 Descending FlightAware ADS-B
Wed 05:07:19 AM -15.6970 -48.3250 133° Southeast 307 353 9,100 -1,500 Descending FlightAware ADS-B
Wed 05:07:44 AM -15.7200 -48.3010 135° Southeast 304 350 8,500 -1,600 Descending FlightAware ADS-B
Wed 05:08:04 AM -15.7400 -48.2780 132° Southeast 303 349 7,900 -1,371 Descending FlightAware ADS-B
Wed 05:08:19 AM -15.7560 -48.2610 134° Southeast 297 342 7,700 -600 Descending FlightAware ADS-B
Wed 05:08:44 AM -15.7770 -48.2380 133° Southeast 280 322 7,500 -400 Descending FlightAware ADS-B
Wed 05:09:04 AM -15.8000 -48.2260 153° Southeast 266 306 7,400 -585 Descending FlightAware ADS-B
Wed 05:09:25 AM -15.8220 -48.2210 168° South 256 295 7,100 -588 Descending FlightAware ADS-B
Wed 05:09:55 AM -15.8560 -48.2150 170° South 229 264 6,900 -490 Descending FlightAware ADS-B
Wed 05:10:14 AM -15.8730 -48.2100 164° South 224 258 6,700 -615 Descending FlightAware ADS-B
Wed 05:10:34 AM -15.8880 -48.1920 131° Southeast 212 244 6,500 -533 Descending FlightAware ADS-B
Wed 05:10:59 AM -15.8930 -48.1680 102° East 203 234 6,300 -450 Descending FlightAware ADS-B
Wed 05:11:14 AM -15.8940 -48.1560 95° East 202 232 6,200 -514 Descending FlightAware ADS-B
Wed 05:11:34 AM -15.8930 -48.1370 87° East 201 231 6,000 -462 Descending FlightAware ADS-B
Wed 05:12:19 AM -15.8900 -48.0910 86° East 201 231 5,700 -369 Descending FlightAware ADS-B
Wed 05:12:39 AM -15.8890 -48.0770 86° East 183 211 5,600 -343 Descending FlightAware ADS-B
Wed 05:12:54 AM -15.8880 -48.0620 86° East 167 192 5,500 -240 Descending FlightAware ADS-B
Wed 05:13:29 AM -15.8870 -48.0360 88° East 165 190 5,400 -682 Descending FlightAware ADS-B
Wed 05:13:38 AM -15.8870 -48.0300 90° East 156 180 5,000 -1,200 Descending FlightAware ADS-B
Wed 05:14:09 AM -15.8850 -48.0080 85° East 152 175 4,600 -500 Descending FlightAware ADS-B
Wed 05:14:50 AM -15.8830 -47.9790 86° East 150 173 4,400 -293 Descending FlightAware ADS-B
Wed 05:15:50 AM -15.8800 -47.9310 86° East 155 178 -4,400 Descending FlightAware ADS-B
Wed 05:16:15 AM -15.8790 -47.9160 86° East 155 178  Level FlightAware ADS-B
Wed 05:18:00 AM -15.8626 -47.9127 11° North  Level Estimated

Login

Don't have an account? Register now (free) for customized features, flight alerts, and more!